createdAt,value
2023-05-06T00:01:28.109Z,100391.72
2023-05-06T00:03:57.629Z,100388.25
2023-05-06T00:06:34.283Z,100380.25
2023-05-06T00:09:03.956Z,100387.38
2023-05-06T00:11:33.514Z,100386.16
2023-05-06T00:14:03.173Z,100393.97
2023-05-06T00:16:32.352Z,100385.72
2023-05-06T00:19:01.612Z,100391.50
2023-05-06T00:21:32.826Z,100393.97
2023-05-06T00:24:02.208Z,100397.28
2023-05-06T00:26:31.442Z,100395.59
2023-05-06T00:29:11.792Z,100402.13
2023-05-06T00:31:41.115Z,100386.22
2023-05-06T00:34:10.589Z,100403.75
2023-05-06T00:36:42.478Z,100392.47
2023-05-06T00:39:11.997Z,100401.72
2023-05-06T00:41:41.196Z,100410.91
2023-05-06T00:44:10.619Z,100403.94
2023-05-06T00:46:41.260Z,100385.66
2023-05-06T00:49:16.317Z,100414.97
2023-05-06T00:51:47.966Z,100414.91
2023-05-06T00:54:18.151Z,100414.88
2023-05-06T00:56:47.886Z,100392.50
2023-05-06T00:59:17.537Z,100413.63
2023-05-06T01:01:47.001Z,100405.31
2023-05-06T01:04:18.180Z,100416.09
2023-05-06T01:06:54.329Z,100418.16
2023-05-06T01:09:39.230Z,100407.88
2023-05-06T01:12:12.172Z,100417.84
2023-05-06T01:14:48.578Z,100419.31
2023-05-06T01:17:26.036Z,100416.34
2023-05-06T01:20:01.182Z,100416.81
2023-05-06T01:22:36.292Z,100422.09
2023-05-06T01:25:08.994Z,100415.91
2023-05-06T01:27:43.513Z,100422.41
2023-05-06T01:30:14.394Z,100412.59
2023-05-06T01:32:54.991Z,100419.16
2023-05-06T01:35:34.595Z,100414.94
2023-05-06T01:38:15.692Z,100420.75
2023-05-06T01:40:54.115Z,100417.41
2023-05-06T01:43:26.577Z,100408.09
2023-05-06T01:45:57.830Z,100413.06
2023-05-06T01:48:30.914Z,100410.31
2023-05-06T01:51:00.669Z,100379.16
2023-05-06T01:53:29.958Z,100409.72
2023-05-06T01:56:01.281Z,100417.91
2023-05-06T01:58:30.850Z,100415.38
2023-05-06T02:00:59.971Z,100410.16
2023-05-06T02:03:34.426Z,100414.84
2023-05-06T02:06:04.413Z,100415.25
2023-05-06T02:08:38.485Z,100423.41
2023-05-06T02:11:10.193Z,100426.88
2023-05-06T02:13:50.492Z,100410.41
2023-05-06T02:16:21.610Z,100441.47
2023-05-06T02:18:51.377Z,100427.47
2023-05-06T02:21:20.897Z,100425.78
2023-05-06T02:23:50.322Z,100429.31
2023-05-06T02:26:22.084Z,100434.88
2023-05-06T02:28:51.521Z,100415.81
2023-05-06T02:31:20.849Z,100433.25
2023-05-06T02:33:50.478Z,100417.56
2023-05-06T02:36:20.212Z,100431.00
2023-05-06T02:38:49.755Z,100443.13
2023-05-06T02:41:19.169Z,100425.94
2023-05-06T02:43:50.264Z,100442.75
2023-05-06T02:46:19.535Z,100438.28
2023-05-06T02:48:48.786Z,100453.50
2023-05-06T02:51:18.316Z,100450.88
2023-05-06T02:53:52.938Z,100443.72
2023-05-06T02:56:22.336Z,100391.88
2023-05-06T02:58:54.539Z,100438.56
2023-05-06T03:01:23.930Z,100428.50
2023-05-06T03:03:53.486Z,100441.47
2023-05-06T03:06:23.120Z,100465.38
2023-05-06T03:08:52.471Z,100433.22
2023-05-06T03:11:21.767Z,100452.63
2023-05-06T03:13:53.176Z,100459.00
2023-05-06T03:16:22.630Z,100457.66
2023-05-06T03:19:00.168Z,100455.56
2023-05-06T03:21:30.305Z,100437.25
2023-05-06T03:24:00.696Z,100441.38
2023-05-06T03:26:31.844Z,100461.19
2023-05-06T03:29:04.804Z,100463.34
2023-05-06T03:31:38.145Z,100469.81
2023-05-06T03:34:07.576Z,100425.91
2023-05-06T03:36:37.485Z,100457.66
2023-05-06T03:39:07.140Z,100466.28
2023-05-06T03:41:44.295Z,100435.88
2023-05-06T03:44:15.809Z,100452.19
2023-05-06T03:46:50.429Z,100468.50
2023-05-06T03:49:22.469Z,100452.31
2023-05-06T03:51:53.037Z,100476.47
2023-05-06T03:54:24.214Z,100441.72
2023-05-06T03:56:54.081Z,100473.88
2023-05-06T03:59:26.358Z,100468.88
2023-05-06T04:01:56.890Z,100468.22
2023-05-06T04:04:27.957Z,100453.53
2023-05-06T04:06:57.426Z,100463.56
2023-05-06T04:09:27.000Z,100464.50
2023-05-06T04:12:09.099Z,100458.16
2023-05-06T04:14:41.772Z,100473.72
2023-05-06T04:17:12.307Z,100471.47
2023-05-06T04:19:41.862Z,100480.06
2023-05-06T04:22:11.192Z,100491.91
2023-05-06T04:24:41.513Z,100494.97
2023-05-06T04:27:12.300Z,100489.59
2023-05-06T04:29:46.404Z,100483.59
2023-05-06T04:32:17.762Z,100470.31
2023-05-06T04:34:48.125Z,100480.75
2023-05-06T04:37:18.972Z,100478.75
2023-05-06T04:39:57.266Z,100470.59
2023-05-06T04:42:26.690Z,100486.19
2023-05-06T04:45:14.462Z,100502.59
2023-05-06T04:47:52.422Z,100495.53
2023-05-06T04:50:22.543Z,100479.88
2023-05-06T04:52:51.852Z,100484.00
2023-05-06T04:55:23.040Z,100502.00
2023-05-06T04:57:55.329Z,100504.91
2023-05-06T05:00:31.609Z,100498.94
2023-05-06T05:03:01.641Z,100474.50
2023-05-06T05:05:37.690Z,100504.75
2023-05-06T05:08:13.089Z,100466.72
2023-05-06T05:10:47.945Z,100502.47
2023-05-06T05:13:22.322Z,100502.69
2023-05-06T05:15:56.647Z,100504.66
2023-05-06T05:18:29.548Z,100488.81
2023-05-06T05:21:09.355Z,100511.81
2023-05-06T05:23:39.748Z,100507.25
2023-05-06T05:26:14.240Z,100510.19
2023-05-06T05:28:45.851Z,100508.28
2023-05-06T05:31:17.461Z,100489.44
2023-05-06T05:33:47.017Z,100514.94
2023-05-06T05:36:18.957Z,100486.38
2023-05-06T05:38:50.502Z,100509.88
2023-05-06T05:41:26.548Z,100445.97
2023-05-06T05:43:57.161Z,100517.63
2023-05-06T05:46:30.480Z,100523.19
2023-05-06T05:49:06.549Z,100474.81
2023-05-06T05:51:41.305Z,100518.00
2023-05-06T05:54:14.014Z,100520.41
2023-05-06T05:56:50.206Z,100520.81
2023-05-06T05:59:19.516Z,100522.41
2023-05-06T06:01:53.419Z,100461.03
2023-05-06T06:04:28.545Z,100528.09
2023-05-06T06:07:01.469Z,100513.19
2023-05-06T06:09:35.879Z,100505.19
2023-05-06T06:12:06.796Z,100519.16
2023-05-06T06:14:38.577Z,100518.13
2023-05-06T06:17:09.904Z,100496.69
2023-05-06T06:19:39.546Z,100514.94
2023-05-06T06:22:09.355Z,100507.97
2023-05-06T06:24:38.941Z,100520.88
2023-05-06T06:27:08.646Z,100523.66
2023-05-06T06:29:43.438Z,100519.78
2023-05-06T06:32:14.704Z,100529.69
2023-05-06T06:34:58.964Z,100523.66
2023-05-06T06:37:28.457Z,100529.38
2023-05-06T06:39:57.716Z,100515.03
2023-05-06T06:42:27.486Z,100524.72
2023-05-06T06:45:25.900Z,100538.34
2023-05-06T06:47:57.265Z,100524.16
2023-05-06T06:50:27.013Z,100540.25
2023-05-06T06:52:56.268Z,100519.31
2023-05-06T06:55:26.014Z,100532.94
2023-05-06T06:57:55.311Z,100546.84
2023-05-06T07:00:26.676Z,100510.44
2023-05-06T07:02:58.089Z,100530.88
2023-05-06T07:05:28.271Z,100519.78
2023-05-06T07:08:03.183Z,100529.16
2023-05-06T07:10:32.576Z,100554.44
2023-05-06T07:13:01.778Z,100565.50
2023-05-06T07:15:36.321Z,100543.50
2023-05-06T07:18:08.006Z,100548.69
2023-05-06T07:20:37.335Z,100569.34
2023-05-06T07:23:06.637Z,100577.34
2023-05-06T07:25:35.887Z,100541.66
2023-05-06T07:28:05.522Z,100573.63
2023-05-06T07:30:35.499Z,100565.75
2023-05-06T07:33:07.018Z,100585.88
2023-05-06T07:35:36.526Z,100593.19
2023-05-06T07:38:05.930Z,100581.31
2023-05-06T07:40:35.295Z,100584.81
2023-05-06T07:43:04.961Z,100597.59
2023-05-06T07:45:34.419Z,100583.28
2023-05-06T07:48:03.903Z,100586.94
2023-05-06T07:50:41.140Z,100590.31
2023-05-06T07:53:11.489Z,100565.56
2023-05-06T07:55:42.101Z,100573.00
2023-05-06T07:58:11.517Z,100585.88
2023-05-06T08:00:40.925Z,100593.13
2023-05-06T08:03:15.890Z,100548.38
2023-05-06T08:05:47.229Z,100549.63
2023-05-06T08:08:22.521Z,100580.94
2023-05-06T08:10:51.989Z,100599.16
2023-05-06T08:13:21.333Z,100600.88
2023-05-06T08:15:51.093Z,100614.41
2023-05-06T08:18:22.977Z,100578.66
2023-05-06T08:21:00.190Z,100605.13
2023-05-06T08:23:29.530Z,100600.31
2023-05-06T08:25:58.759Z,100605.50
2023-05-06T08:28:28.937Z,100575.81
2023-05-06T08:30:58.100Z,100563.56
2023-05-06T08:33:27.387Z,100599.34
2023-05-06T08:35:59.988Z,100553.34
2023-05-06T08:38:29.576Z,100576.06
2023-05-06T08:41:08.036Z,100608.19
2023-05-06T08:43:48.046Z,100596.13
2023-05-06T08:46:18.062Z,100604.47
2023-05-06T08:48:47.589Z,100581.94
2023-05-06T08:51:31.261Z,100559.56
2023-05-06T08:54:03.649Z,100578.31
2023-05-06T08:56:36.637Z,100580.47
2023-05-06T08:59:08.769Z,100573.97
2023-05-06T09:01:38.261Z,100590.22
2023-05-06T09:04:09.271Z,100584.19
2023-05-06T09:06:46.101Z,100571.06
2023-05-06T09:09:16.486Z,100513.09
2023-05-06T09:11:54.816Z,100586.13
2023-05-06T09:14:24.801Z,100530.56
2023-05-06T09:16:59.905Z,100587.59
2023-05-06T09:19:29.384Z,100566.69
2023-05-06T09:22:00.764Z,100587.38
2023-05-06T09:24:30.353Z,100521.81
2023-05-06T09:27:04.618Z,100592.59
2023-05-06T09:29:34.051Z,100550.63
2023-05-06T09:32:11.096Z,100565.25
2023-05-06T09:34:46.372Z,100582.69
2023-05-06T09:37:17.938Z,100579.47
2023-05-06T09:39:47.427Z,100581.06
2023-05-06T09:42:18.024Z,100529.28
2023-05-06T09:44:52.803Z,100589.56
2023-05-06T09:47:23.487Z,100582.97
2023-05-06T09:49:52.986Z,100558.84
2023-05-06T09:52:24.652Z,100555.63
2023-05-06T09:54:55.176Z,100572.94
2023-05-06T09:57:24.999Z,100585.72
2023-05-06T09:59:55.928Z,100584.09
2023-05-06T10:02:26.331Z,100579.66
2023-05-06T10:05:00.521Z,100498.16
2023-05-06T10:07:38.082Z,100577.34
2023-05-06T10:10:13.185Z,100567.78
2023-05-06T10:12:42.804Z,100570.28
2023-05-06T10:15:12.596Z,100558.97
2023-05-06T10:17:52.275Z,100575.19
2023-05-06T10:20:23.371Z,100578.03
2023-05-06T10:23:11.033Z,100579.03
2023-05-06T10:25:47.637Z,100584.16
2023-05-06T10:30:53.883Z,100563.47
2023-05-06T10:33:30.834Z,100568.56
2023-05-06T10:36:15.519Z,100576.25
2023-05-06T10:38:54.060Z,100538.25
2023-05-06T10:41:25.776Z,100515.25
2023-05-06T10:47:00.235Z,100565.75
2023-05-06T10:49:29.813Z,100573.28
2023-05-06T10:52:25.991Z,100556.16
2023-05-06T10:54:57.228Z,100541.00
2023-05-06T10:57:27.524Z,100570.97
2023-05-06T10:59:57.015Z,100563.25
2023-05-06T11:02:26.680Z,100576.00
2023-05-06T11:05:03.135Z,100592.00
2023-05-06T11:07:34.047Z,100558.53
2023-05-06T11:10:07.766Z,100553.13
2023-05-06T11:12:50.921Z,100571.28
2023-05-06T11:15:23.265Z,100592.59
2023-05-06T11:17:52.826Z,100570.16
2023-05-06T11:20:24.188Z,100597.47
2023-05-06T11:22:58.710Z,100596.78
2023-05-06T11:25:51.089Z,100582.06
2023-05-06T11:28:20.731Z,100587.06
2023-05-06T11:30:57.088Z,100574.19
2023-05-06T11:33:33.266Z,100575.03
2023-05-06T11:36:03.408Z,100576.09
2023-05-06T11:38:43.726Z,100578.88
2023-05-06T11:41:16.014Z,100571.03
2023-05-06T11:43:50.028Z,100556.53
2023-05-06T11:46:20.925Z,100544.25
2023-05-06T11:49:00.397Z,100537.25
2023-05-06T11:51:34.932Z,100578.41
2023-05-06T11:54:11.018Z,100565.03
2023-05-06T11:56:53.000Z,100552.22
2023-05-06T11:59:29.219Z,100566.66
2023-05-06T12:02:00.239Z,100569.97
2023-05-06T12:04:39.287Z,100569.91
2023-05-06T12:07:09.647Z,100563.50
2023-05-06T12:09:40.071Z,100552.44
2023-05-06T12:12:25.096Z,100585.88
2023-05-06T12:14:55.262Z,100575.69
2023-05-06T12:17:25.176Z,100581.69
2023-05-06T12:19:54.513Z,100572.25
2023-05-06T12:22:28.748Z,100573.56
2023-05-06T12:24:58.465Z,100568.63
2023-05-06T12:27:34.604Z,100578.28
2023-05-06T12:30:04.972Z,100568.06
2023-05-06T12:32:36.326Z,100499.59
2023-05-06T12:35:07.296Z,100567.06
2023-05-06T12:37:42.050Z,100561.56
2023-05-06T12:40:19.164Z,100548.69
2023-05-06T12:42:57.916Z,100564.72
2023-05-06T12:51:45.743Z,100574.38
2023-05-06T12:54:32.059Z,100595.88
2023-05-06T12:57:01.838Z,100595.84
2023-05-06T12:59:31.339Z,100589.84
2023-05-06T13:02:00.821Z,100588.88
2023-05-06T13:04:30.725Z,100550.22
2023-05-06T13:07:17.105Z,100579.47
2023-05-06T13:09:59.777Z,100576.13
2023-05-06T13:12:44.164Z,100605.50
2023-05-06T13:15:14.073Z,100577.44
2023-05-06T13:17:43.448Z,100599.63
2023-05-06T13:20:20.014Z,100591.88
2023-05-06T13:22:55.201Z,100585.00
2023-05-06T13:25:25.395Z,100581.44
2023-05-06T13:27:55.013Z,100610.78
2023-05-06T13:30:24.433Z,100582.50
2023-05-06T13:33:12.077Z,100594.28
2023-05-06T13:35:42.602Z,100578.91
2023-05-06T13:38:32.845Z,100610.44
2023-05-06T13:41:02.462Z,100574.41
2023-05-06T13:43:51.654Z,100579.94
2023-05-06T13:46:21.143Z,100578.22
2023-05-06T13:48:55.938Z,100588.88
2023-05-06T13:51:28.920Z,100613.88
2023-05-06T13:54:00.760Z,100624.97
2023-05-06T13:56:45.076Z,100607.81
2023-05-06T13:59:14.558Z,100611.25
2023-05-06T14:01:59.305Z,100599.69
2023-05-06T14:04:28.729Z,100611.81
2023-05-06T14:06:58.964Z,100605.13
2023-05-06T14:09:30.311Z,100606.84
2023-05-06T14:12:00.212Z,100621.97
2023-05-06T14:14:29.460Z,100617.72
2023-05-06T14:16:58.946Z,100547.53
2023-05-06T14:19:29.689Z,100623.53
2023-05-06T14:21:59.045Z,100638.09
2023-05-06T14:24:49.957Z,100609.97
2023-05-06T14:27:19.651Z,100605.53
2023-05-06T14:29:48.987Z,100629.34
2023-05-06T14:32:23.475Z,100616.72
2023-05-06T14:34:52.872Z,100610.78
2023-05-06T14:37:22.579Z,100624.41
2023-05-06T14:39:59.236Z,100623.19
2023-05-06T14:42:35.459Z,100621.38
2023-05-06T14:45:10.088Z,100584.97
2023-05-06T14:47:41.570Z,100625.63
2023-05-06T14:50:30.826Z,100626.50
2023-05-06T14:53:02.188Z,100602.28
2023-05-06T14:55:35.048Z,100601.88
2023-05-06T14:58:04.341Z,100627.44
2023-05-06T15:00:33.610Z,100597.72
2023-05-06T15:03:08.242Z,100615.25
2023-05-06T15:05:38.574Z,100610.13
2023-05-06T15:08:09.645Z,100628.72
2023-05-06T15:10:41.544Z,100630.34
2023-05-06T15:13:10.949Z,100630.28
2023-05-06T15:15:40.363Z,100624.94
2023-05-06T15:18:09.868Z,100610.28
2023-05-06T15:20:39.145Z,100626.34
2023-05-06T15:23:08.424Z,100632.28
2023-05-06T15:25:44.957Z,100613.44
2023-05-06T15:28:14.544Z,100600.25
2023-05-06T15:30:43.990Z,100627.69
2023-05-06T15:33:13.258Z,100643.78
2023-05-06T15:35:47.398Z,100638.50
2023-05-06T15:38:17.158Z,100638.34
2023-05-06T15:40:52.415Z,100626.16
2023-05-06T15:43:24.095Z,100632.88
2023-05-06T15:45:54.060Z,100633.00
2023-05-06T15:48:23.401Z,100648.16
2023-05-06T15:50:52.620Z,100636.81
2023-05-06T15:53:21.832Z,100637.88
2023-05-06T15:56:08.936Z,100637.72
2023-05-06T15:58:51.482Z,100620.59
2023-05-06T16:01:26.956Z,100637.44
2023-05-06T16:04:15.124Z,100634.91
2023-05-06T16:06:44.644Z,100603.03
2023-05-06T16:09:13.962Z,100627.59
2023-05-06T16:11:45.442Z,100622.63
2023-05-06T16:14:15.497Z,100644.94
2023-05-06T16:16:44.722Z,100637.56
2023-05-06T16:19:14.732Z,100627.88
2023-05-06T16:21:44.039Z,100623.53
2023-05-06T16:24:13.583Z,100634.56
2023-05-06T16:26:44.834Z,100644.56
2023-05-06T16:29:15.293Z,100641.25
2023-05-06T16:31:50.740Z,100623.94
2023-05-06T16:34:20.082Z,100650.69
2023-05-06T16:36:50.151Z,100649.31
2023-05-06T16:39:24.440Z,100609.34
2023-05-06T16:41:56.775Z,100638.94
2023-05-06T16:44:26.205Z,100657.97
2023-05-06T16:46:55.828Z,100632.28
2023-05-06T16:49:32.494Z,100657.56
2023-05-06T16:52:07.386Z,100650.63
2023-05-06T16:54:36.849Z,100669.59
2023-05-06T16:57:08.346Z,100673.44
2023-05-06T16:59:37.784Z,100688.38
2023-05-06T17:02:07.302Z,100673.91
2023-05-06T17:04:42.073Z,100680.88
2023-05-06T17:07:12.868Z,100677.91
2023-05-06T17:09:42.984Z,100685.03
2023-05-06T17:12:14.610Z,100698.84
2023-05-06T17:14:44.134Z,100681.84
2023-05-06T17:17:20.265Z,100683.16
2023-05-06T17:19:59.171Z,100688.66
2023-05-06T17:22:28.879Z,100709.44
2023-05-06T17:24:58.072Z,100663.00
2023-05-06T17:27:29.332Z,100716.91
2023-05-06T17:29:58.694Z,100721.03
2023-05-06T17:32:27.998Z,100703.28
2023-05-06T17:35:02.702Z,100723.56
2023-05-06T17:37:34.120Z,100726.69
2023-05-06T17:40:05.260Z,100715.69
2023-05-06T17:42:38.250Z,100707.56
2023-05-06T17:45:08.813Z,100734.28
2023-05-06T17:47:38.374Z,100711.22
2023-05-06T17:50:08.559Z,100736.56
2023-05-06T17:52:37.927Z,100737.47
2023-05-06T17:57:47.801Z,100745.28
2023-05-06T18:00:18.410Z,100742.25
2023-05-06T18:02:47.889Z,100732.84
2023-05-06T18:05:18.245Z,100742.84
2023-05-06T18:07:48.250Z,100738.97
2023-05-06T18:10:17.552Z,100751.97
2023-05-06T18:12:48.840Z,100751.75
2023-05-06T18:15:18.377Z,100743.09
2023-05-06T18:17:47.676Z,100743.66
2023-05-06T18:20:17.754Z,100748.13
2023-05-06T18:22:46.979Z,100763.94
2023-05-06T18:25:16.364Z,100761.06
2023-05-06T18:27:54.624Z,100759.56
2023-05-06T18:30:24.074Z,100762.16
2023-05-06T18:32:55.221Z,100721.06
2023-05-06T18:35:26.282Z,100766.97
2023-05-06T18:37:55.587Z,100774.44
2023-05-06T18:40:25.023Z,100743.09
2023-05-06T18:42:56.938Z,100769.69
2023-05-06T18:45:26.458Z,100771.50
2023-05-06T18:47:56.032Z,100764.56
2023-05-06T18:50:25.576Z,100770.25
2023-05-06T18:52:56.007Z,100759.34
2023-05-06T18:55:25.395Z,100774.03
2023-05-06T18:57:56.985Z,100775.72
2023-05-06T19:00:28.616Z,100757.97
2023-05-06T19:02:58.042Z,100779.19
2023-05-06T19:05:27.427Z,100783.19
2023-05-06T19:08:01.775Z,100772.00
2023-05-06T19:10:31.226Z,100766.22
2023-05-06T19:13:02.616Z,100783.69
2023-05-06T19:15:32.082Z,100778.13
2023-05-06T19:18:01.385Z,100754.59
2023-05-06T19:20:35.827Z,100786.06
2023-05-06T19:23:05.585Z,100736.94
2023-05-06T19:25:36.977Z,100778.47
2023-05-06T19:28:09.246Z,100762.00
2023-05-06T19:30:38.783Z,100786.06
2023-05-06T19:33:08.445Z,100776.59
2023-05-06T19:35:42.941Z,100775.38
2023-05-06T19:38:12.467Z,100790.28
2023-05-06T19:40:41.868Z,100783.97
2023-05-06T19:43:13.347Z,100772.94
2023-05-06T19:45:42.809Z,100768.28
2023-05-06T19:48:12.543Z,100772.66
2023-05-06T19:50:47.363Z,100778.50
2023-05-06T19:53:17.438Z,100775.63
2023-05-06T19:55:47.145Z,100775.47
2023-05-06T19:58:19.104Z,100772.25
2023-05-06T20:00:49.257Z,100779.47
2023-05-06T20:03:18.845Z,100772.38
2023-05-06T20:05:48.401Z,100779.22
2023-05-06T20:08:17.649Z,100769.41
2023-05-06T20:10:47.228Z,100777.47
2023-05-06T20:13:20.075Z,100781.25
2023-05-06T20:15:49.769Z,100779.53
2023-05-06T20:18:19.215Z,100751.94
2023-05-06T20:20:48.812Z,100779.84
2023-05-06T20:23:18.188Z,100783.09
2023-05-06T20:25:52.822Z,100787.91
2023-05-06T20:28:24.067Z,100787.34
2023-05-06T20:30:55.208Z,100787.47
2023-05-06T20:33:24.728Z,100788.88
2023-05-06T20:35:55.110Z,100761.38
2023-05-06T20:38:24.448Z,100786.97
2023-05-06T20:40:53.711Z,100783.88
2023-05-06T20:43:30.598Z,100787.78
2023-05-06T20:46:00.102Z,100796.72
2023-05-06T20:48:30.973Z,100787.38
2023-05-06T20:51:00.337Z,100782.41
2023-05-06T20:53:29.607Z,100793.97
2023-05-06T20:56:03.925Z,100787.00
2023-05-06T20:58:35.320Z,100791.75
2023-05-06T21:01:05.750Z,100793.16
2023-05-06T21:03:36.217Z,100787.31
2023-05-06T21:06:05.973Z,100777.19
2023-05-06T21:08:35.366Z,100790.06
2023-05-06T21:11:05.246Z,100796.53
2023-05-06T21:13:36.703Z,100792.09
2023-05-06T21:16:07.070Z,100791.41
2023-05-06T21:18:36.545Z,100761.25
2023-05-06T21:21:06.152Z,100799.44
2023-05-06T21:23:35.588Z,100805.75
2023-05-06T21:26:04.906Z,100809.00
2023-05-06T21:28:46.395Z,100811.22
2023-05-06T21:31:15.655Z,100797.56
2023-05-06T21:33:45.028Z,100800.78
2023-05-06T21:36:19.502Z,100808.66
2023-05-06T21:38:50.339Z,100809.13
2023-05-06T21:41:25.617Z,100796.38
2023-05-06T21:43:56.833Z,100804.16
2023-05-06T21:46:26.582Z,100799.81
2023-05-06T21:48:55.840Z,100772.59
2023-05-06T21:51:25.293Z,100804.97
2023-05-06T21:53:54.555Z,100796.97
2023-05-06T21:56:25.854Z,100796.56
2023-05-06T21:58:57.609Z,100807.78
2023-05-06T22:01:28.642Z,100808.91
2023-05-06T22:03:58.537Z,100772.03
2023-05-06T22:06:27.799Z,100804.72
2023-05-06T22:08:57.074Z,100803.03
2023-05-06T22:11:26.542Z,100806.31
2023-05-06T22:13:57.772Z,100796.72
2023-05-06T22:16:27.162Z,100800.94
2023-05-06T22:18:56.626Z,100793.38
2023-05-06T22:21:26.554Z,100807.78
2023-05-06T22:24:01.209Z,100770.72
2023-05-06T22:26:32.719Z,100786.09
2023-05-06T22:29:09.125Z,100797.31
2023-05-06T22:31:38.445Z,100816.22
2023-05-06T22:34:08.043Z,100813.16
2023-05-06T22:36:42.547Z,100809.25
2023-05-06T22:39:11.929Z,100814.19
2023-05-06T22:41:48.082Z,100809.63
2023-05-06T22:44:19.523Z,100799.97
2023-05-06T22:46:54.070Z,100815.66
2023-05-06T22:49:30.848Z,100800.25
2023-05-06T22:52:00.316Z,100813.94
2023-05-06T22:54:29.660Z,100798.97
2023-05-06T22:56:59.061Z,100824.63
2023-05-06T22:59:30.332Z,100828.19
2023-05-06T23:01:59.859Z,100816.34
2023-05-06T23:04:29.118Z,100822.44
2023-05-06T23:07:05.513Z,100827.47
2023-05-06T23:09:34.949Z,100820.41
2023-05-06T23:12:04.562Z,100825.28
2023-05-06T23:14:40.681Z,100816.28
2023-05-06T23:17:10.117Z,100827.97
2023-05-06T23:20:01.274Z,100834.69
2023-05-06T23:22:33.053Z,100833.84
2023-05-06T23:25:02.382Z,100842.78
2023-05-06T23:27:34.303Z,100836.38
2023-05-06T23:32:42.571Z,100843.66
2023-05-06T23:35:12.466Z,100836.66
2023-05-06T23:37:41.957Z,100829.03
2023-05-06T23:40:13.041Z,100832.38
2023-05-06T23:42:42.458Z,100833.75
2023-05-06T23:45:14.413Z,100836.31
2023-05-06T23:47:43.841Z,100836.16
2023-05-06T23:50:14.097Z,100840.94
2023-05-06T23:52:43.671Z,100828.72
2023-05-06T23:55:13.404Z,100840.00
2023-05-06T23:57:47.993Z,100828.97
